Time;durP1;ratioP1;P1;durP2;ratioP2;P2;SDS_P1;SDS_P2;PMS_P1;PMS_P2;Temp;Humidity;BMP_temperature;BMP_pressure;BME280_temperature;BME280_humidity;BME280_pressure;Samples;Min_cycle;Max_cycle;Signal;HPM_P1;HPM_P2
2023/12/23 00:00:16;;;;;;;14.15;2.28;;;5.00;99.90;;;;;;4253166;27;20399;-81
2023/12/23 00:02:17;;;;;;;19.25;1.65;;;5.00;99.90;;;;;;4252032;27;20114;-81
2023/12/23 00:04:18;;;;;;;19.42;2.17;;;5.00;99.90;;;;;;4252397;27;20041;-81
2023/12/23 00:06:19;;;;;;;14.15;2.15;;;5.50;99.90;;;;;;4251719;27;20039;-81
2023/12/23 00:08:19;;;;;;;8.85;2.33;;;5.70;99.90;;;;;;4252286;27;20119;-81
2023/12/23 00:10:20;;;;;;;8.75;1.58;;;5.50;99.90;;;;;;4252041;27;20066;-81
2023/12/23 00:12:21;;;;;;;10.45;1.60;;;4.90;99.90;;;;;;4251730;27;20035;-81
2023/12/23 00:14:22;;;;;;;12.18;1.50;;;4.80;99.90;;;;;;4251476;27;20043;-81
2023/12/23 00:16:27;;;;;;;14.50;1.95;;;4.80;99.90;;;;;;4251131;27;20047;-81
2023/12/23 00:18:28;;;;;;;13.52;2.58;;;4.70;99.90;;;;;;4250321;27;20043;-81
2023/12/23 00:20:29;;;;;;;11.68;1.90;;;4.80;99.90;;;;;;4250116;27;20040;-81
2023/12/23 00:22:30;;;;;;;5.97;1.38;;;5.70;99.90;;;;;;4250743;27;20039;-81
2023/12/23 00:24:31;;;;;;;13.93;1.25;;;5.50;99.90;;;;;;4250435;27;20043;-81
2023/12/23 00:26:33;;;;;;;4.93;1.08;;;4.70;99.90;;;;;;4249776;27;20043;-81
2023/12/23 00:28:34;;;;;;;10.18;1.10;;;4.70;99.90;;;;;;4250228;27;20035;-81
2023/12/23 00:30:34;;;;;;;17.85;1.63;;;5.50;99.90;;;;;;4251111;27;20039;-81
2023/12/23 00:32:36;;;;;;;11.82;1.83;;;4.70;99.90;;;;;;4250648;27;20076;-81
2023/12/23 00:34:37;;;;;;;12.93;2.25;;;4.70;99.90;;;;;;4250831;27;20178;-81
2023/12/23 00:36:39;;;;;;;11.07;1.85;;;4.70;99.90;;;;;;4250491;27;20042;-81
2023/12/23 00:38:40;;;;;;;15.02;1.55;;;5.20;99.90;;;;;;4250391;27;20043;-81
2023/12/23 00:40:41;;;;;;;12.18;1.90;;;5.90;99.90;;;;;;4250533;27;20035;-81
2023/12/23 00:42:41;;;;;;;6.68;0.93;;;5.90;99.90;;;;;;4250949;27;20043;-81
2023/12/23 00:44:42;;;;;;;14.93;1.40;;;4.70;99.90;;;;;;4232282;28;20051;-81
2023/12/23 00:46:43;;;;;;;9.82;1.88;;;5.80;99.90;;;;;;4249786;27;20070;-81
2023/12/23 00:48:43;;;;;;;13.25;1.95;;;4.80;99.90;;;;;;4249998;27;20039;-81
2023/12/23 00:50:44;;;;;;;17.60;2.30;;;4.80;99.90;;;;;;4249915;27;20035;-81
2023/12/23 00:52:45;;;;;;;13.82;1.20;;;6.00;99.90;;;;;;4250542;27;20512;-81
2023/12/23 00:54:45;;;;;;;6.53;1.50;;;5.40;99.90;;;;;;4250344;27;20122;-81
2023/12/23 00:56:47;;;;;;;13.07;2.28;;;4.70;99.90;;;;;;4250160;27;20039;-81
2023/12/23 00:58:49;;;;;;;8.13;2.05;;;4.80;99.90;;;;;;4249826;27;20043;-81
2023/12/23 01:00:50;;;;;;;17.17;1.45;;;5.20;99.90;;;;;;4249742;27;20051;-81
2023/12/23 01:02:51;;;;;;;16.00;1.70;;;4.80;99.90;;;;;;4250303;27;20034;-81
2023/12/23 01:04:54;;;;;;;18.65;2.00;;;4.90;99.90;;;;;;4249934;27;20047;-81
2023/12/23 01:06:55;;;;;;;16.90;2.00;;;5.20;99.90;;;;;;4250582;27;20047;-81
2023/12/23 01:08:57;;;;;;;14.73;2.42;;;5.40;99.90;;;;;;4250606;27;20043;-81
2023/12/23 01:10:59;;;;;;;18.23;3.10;;;5.60;99.90;;;;;;4250809;27;20042;-81
2023/12/23 01:13:01;;;;;;;16.35;3.28;;;5.50;99.90;;;;;;4250027;28;20047;-81
2023/12/23 01:15:02;;;;;;;13.82;1.50;;;4.90;99.90;;;;;;4250200;28;20360;-81
2023/12/23 01:17:03;;;;;;;24.83;2.95;;;4.90;99.90;;;;;;4250645;28;20050;-81
2023/12/23 01:19:04;;;;;;;11.15;2.13;;;4.90;99.90;;;;;;4249532;28;20039;-81
2023/12/23 01:21:05;;;;;;;25.65;2.42;;;4.90;99.90;;;;;;4250212;28;20126;-81
2023/12/23 01:23:07;;;;;;;14.50;2.10;;;5.00;99.90;;;;;;4249995;28;20078;-81
2023/12/23 01:25:09;;;;;;;18.20;2.35;;;5.00;99.90;;;;;;4249982;28;20487;-81
2023/12/23 01:27:10;;;;;;;18.02;2.00;;;5.80;99.90;;;;;;4248867;27;20745;-81
2023/12/23 01:29:10;;;;;;;20.02;2.58;;;5.00;99.90;;;;;;4249835;28;20039;-81
2023/12/23 01:31:11;;;;;;;10.27;2.10;;;5.10;99.90;;;;;;4249867;28;20537;-81
2023/12/23 01:33:12;;;;;;;11.98;1.85;;;5.10;99.90;;;;;;4252123;27;20042;-81
2023/12/23 01:35:13;;;;;;;12.05;1.92;;;6.10;99.90;;;;;;4253078;27;20082;-81
2023/12/23 01:37:14;;;;;;;14.02;2.33;;;5.20;99.90;;;;;;4253879;27;20044;-81
2023/12/23 01:39:14;;;;;;;13.35;1.30;;;5.20;99.90;;;;;;4236758;28;20118;-81
2023/12/23 01:41:17;;;;;;;17.17;2.58;;;5.20;99.90;;;;;;4254560;27;20031;-81
2023/12/23 01:43:18;;;;;;;17.25;1.83;;;5.30;99.90;;;;;;4253108;27;20039;-81
2023/12/23 01:45:19;;;;;;;14.73;1.48;;;5.30;99.90;;;;;;4253093;27;20518;-81
2023/12/23 01:47:21;;;;;;;12.00;2.00;;;5.30;99.90;;;;;;4252897;27;20047;-81
2023/12/23 01:49:23;;;;;;;7.43;1.27;;;5.40;99.90;;;;;;4253351;27;20585;-81
2023/12/23 01:51:25;;;;;;;12.70;2.13;;;5.40;99.90;;;;;;4252426;27;20093;-81
2023/12/23 01:53:26;;;;;;;9.63;1.30;;;5.40;99.90;;;;;;4253210;27;20530;-81
2023/12/23 01:55:28;;;;;;;15.77;1.33;;;5.40;99.90;;;;;;4252809;27;20051;-81
2023/12/23 01:57:30;;;;;;;12.30;1.80;;;5.60;99.90;;;;;;4253103;27;20106;-81
2023/12/23 01:59:30;;;;;;;13.18;1.80;;;5.40;99.90;;;;;;4233672;28;20040;-81
2023/12/23 02:01:32;;;;;;;15.52;2.03;;;5.40;99.90;;;;;;4252725;27;20356;-81
2023/12/23 02:03:33;;;;;;;10.15;1.50;;;5.50;99.90;;;;;;4252613;27;20070;-81
2023/12/23 02:05:34;;;;;;;17.38;1.70;;;6.70;99.90;;;;;;4252316;27;20039;-81
2023/12/23 02:07:35;;;;;;;15.02;2.70;;;5.50;99.90;;;;;;4252513;27;20076;-81
2023/12/23 02:09:37;;;;;;;7.30;1.20;;;5.50;99.90;;;;;;4252672;27;20039;-81
2023/12/23 02:11:57;;;;;;;15.02;2.58;;;5.50;99.90;;;;;;4253236;27;20073;-81
2023/12/23 02:14:10;;;;;;;10.07;2.40;;;5.50;99.90;;;;;;4252494;27;20031;-81
2023/12/23 02:16:11;;;;;;;11.43;1.38;;;5.90;99.90;;;;;;4252567;27;20078;-81
2023/12/23 02:18:12;;;;;;;14.45;1.20;;;5.80;99.90;;;;;;4252647;27;20376;-81
2023/12/23 02:20:13;;;;;;;4.88;1.20;;;5.50;99.90;;;;;;4252634;27;20084;-81
2023/12/23 02:22:14;;;;;;;14.45;1.30;;;5.50;99.90;;;;;;4252699;27;20103;-81
2023/12/23 02:24:15;;;;;;;6.03;1.40;;;5.60;99.90;;;;;;4252698;27;20046;-81
2023/12/23 02:26:19;;;;;;;11.77;2.17;;;6.30;99.90;;;;;;4252338;27;20122;-81
2023/12/23 02:28:22;;;;;;;6.35;1.30;;;6.40;99.90;;;;;;4249530;27;20368;-81
2023/12/23 02:30:25;;;;;;;7.65;1.30;;;5.60;99.90;;;;;;4235175;28;20054;-81
2023/12/23 02:32:27;;;;;;;5.97;0.70;;;5.90;99.90;;;;;;4250402;27;20047;-81
2023/12/23 02:34:28;;;;;;;9.10;1.58;;;6.40;99.90;;;;;;4252234;27;20095;-81
2023/12/23 02:36:29;;;;;;;7.72;1.25;;;5.60;99.90;;;;;;4252117;27;20126;-81
2023/12/23 02:38:30;;;;;;;4.78;1.30;;;6.40;99.90;;;;;;4251954;27;20031;-81
2023/12/23 02:40:33;;;;;;;10.13;1.00;;;5.60;99.90;;;;;;4262467;27;20039;-81
2023/12/23 02:42:34;;;;;;;6.85;1.15;;;5.50;99.90;;;;;;4236184;28;20043;-81
2023/12/23 02:44:36;;;;;;;6.88;1.10;;;6.00;99.90;;;;;;4252070;27;20047;-81
2023/12/23 02:46:37;;;;;;;3.70;1.10;;;5.50;99.90;;;;;;4253246;27;20092;-81
2023/12/23 02:48:38;;;;;;;10.85;1.40;;;5.50;99.90;;;;;;4253309;27;20043;-81
2023/12/23 02:50:38;;;;;;;9.80;0.90;;;5.90;99.90;;;;;;4253722;27;20035;-81
2023/12/23 02:52:39;;;;;;;8.20;1.40;;;5.60;99.90;;;;;;4252586;27;20070;-81
2023/12/23 02:54:40;;;;;;;14.45;1.80;;;5.80;99.90;;;;;;4252360;27;20145;-82
2023/12/23 02:56:41;;;;;;;10.80;1.50;;;5.40;99.90;;;;;;4252475;27;20086;-81
2023/12/23 02:58:42;;;;;;;15.57;1.65;;;5.40;99.90;;;;;;4256837;27;20135;-81
2023/12/23 03:00:43;;;;;;;6.75;1.90;;;5.40;99.90;;;;;;4252169;27;20050;-81
2023/12/23 03:02:43;;;;;;;11.63;2.15;;;5.40;99.90;;;;;;4252998;27;20043;-81
2023/12/23 03:04:44;;;;;;;10.85;2.55;;;6.10;99.90;;;;;;4233838;28;20051;-81
2023/12/23 03:06:45;;;;;;;10.18;1.92;;;5.40;99.90;;;;;;4234030;28;20047;-81
2023/12/23 03:08:45;;;;;;;11.98;1.08;;;5.40;99.90;;;;;;4252163;27;20394;-81
2023/12/23 03:10:46;;;;;;;11.40;1.10;;;5.40;99.90;;;;;;4256236;27;20039;-81
2023/12/23 03:12:47;;;;;;;12.98;1.17;;;5.60;99.90;;;;;;4252670;27;20137;-82
2023/12/23 03:14:47;;;;;;;10.73;1.13;;;5.80;99.90;;;;;;4233800;28;20052;-82
2023/12/23 03:16:48;;;;;;;4.18;0.60;;;5.90;99.90;;;;;;4232911;28;20054;-81
2023/12/23 03:18:49;;;;;;;10.45;2.25;;;5.30;99.90;;;;;;4251268;27;20053;-82
2023/12/23 03:20:50;;;;;;;9.25;1.35;;;5.70;99.90;;;;;;4252587;27;20475;-82
2023/12/23 03:22:51;;;;;;;8.65;1.35;;;5.20;99.90;;;;;;4258215;27;20043;-81
2023/12/23 03:24:52;;;;;;;8.15;1.58;;;5.30;99.90;;;;;;4251462;27;20049;-81
2023/12/23 03:26:52;;;;;;;10.90;1.20;;;5.20;99.90;;;;;;4251445;27;20130;-81
2023/12/23 03:28:53;;;;;;;9.40;1.73;;;5.50;99.90;;;;;;4250349;27;20039;-81
2023/12/23 03:30:54;;;;;;;5.82;1.35;;;5.20;99.90;;;;;;4249213;27;20035;-81
2023/12/23 03:32:55;;;;;;;10.13;1.83;;;6.20;99.90;;;;;;4251322;27;20113;-81
2023/12/23 03:34:56;;;;;;;9.18;2.25;;;5.20;99.90;;;;;;4233685;28;20048;-81
2023/12/23 03:36:56;;;;;;;9.38;1.23;;;5.20;99.90;;;;;;4233885;28;20606;-81
2023/12/23 03:38:57;;;;;;;11.57;1.23;;;5.80;99.90;;;;;;4252193;27;20078;-81
2023/12/23 03:40:58;;;;;;;7.25;0.88;;;5.10;99.90;;;;;;4234095;28;20036;-81
2023/12/23 03:42:58;;;;;;;11.90;1.35;;;5.10;99.90;;;;;;4252960;27;20039;-82
2023/12/23 03:44:59;;;;;;;8.75;1.30;;;5.10;99.90;;;;;;4252387;27;20046;-81
2023/12/23 03:47:00;;;;;;;4.50;1.00;;;5.10;99.90;;;;;;4251046;27;20039;-81
2023/12/23 03:49:00;;;;;;;6.60;1.17;;;5.10;99.90;;;;;;4234622;28;20080;-81
2023/12/23 03:51:01;;;;;;;13.52;1.52;;;5.10;99.90;;;;;;4238483;28;20046;-81
2023/12/23 03:53:02;;;;;;;11.23;1.52;;;6.10;99.90;;;;;;4236890;27;20044;-82
2023/12/23 03:55:03;;;;;;;6.85;0.90;;;5.00;99.90;;;;;;4255082;27;20039;-81
2023/12/23 03:57:04;;;;;;;8.82;0.85;;;5.00;99.90;;;;;;4253541;27;20596;-81
2023/12/23 03:59:05;;;;;;;12.32;1.33;;;5.60;99.90;;;;;;4252862;27;20043;-81
2023/12/23 04:01:06;;;;;;;11.18;1.35;;;5.00;99.90;;;;;;4253112;27;20498;-82
2023/12/23 04:03:07;;;;;;;8.90;0.90;;;5.00;99.90;;;;;;4252673;27;20039;-81
2023/12/23 04:05:09;;;;;;;11.70;1.33;;;5.00;99.90;;;;;;4252033;27;20081;-82
2023/12/23 04:07:09;;;;;;;12.15;1.42;;;5.00;99.90;;;;;;4252550;27;20039;-81
2023/12/23 04:09:10;;;;;;;7.30;1.23;;;4.90;99.90;;;;;;4252846;27;20074;-81
2023/12/23 04:11:11;;;;;;;9.02;1.23;;;4.90;99.90;;;;;;4244539;27;20403;-80
2023/12/23 04:13:11;;;;;;;9.52;1.15;;;5.20;99.90;;;;;;4238356;27;20109;-81
2023/12/23 04:15:14;;;;;;;8.75;1.65;;;4.90;99.90;;;;;;4252703;27;20107;-81
2023/12/23 04:17:15;;;;;;;9.65;1.02;;;4.90;99.90;;;;;;4250947;27;20047;-80
2023/12/23 04:19:16;;;;;;;4.85;1.00;;;4.90;99.90;;;;;;4251136;27;20116;-80
2023/12/23 04:21:17;;;;;;;8.02;0.93;;;4.90;99.90;;;;;;4250416;27;20487;-80
2023/12/23 04:23:18;;;;;;;7.95;1.02;;;4.90;99.90;;;;;;4251063;27;20047;-81
2023/12/23 04:25:21;;;;;;;4.32;0.90;;;4.90;99.90;;;;;;4250807;27;20115;-79
2023/12/23 04:27:22;;;;;;;9.90;1.40;;;4.90;99.90;;;;;;4250661;27;20075;-80
2023/12/23 04:29:24;;;;;;;8.95;1.00;;;5.70;99.90;;;;;;4231865;28;20050;-80
2023/12/23 04:31:25;;;;;;;2.90;0.77;;;5.30;99.90;;;;;;4237419;27;20044;-80
2023/12/23 04:33:26;;;;;;;6.95;0.70;;;4.90;99.90;;;;;;4233743;28;20452;-80
2023/12/23 04:35:26;;;;;;;4.68;0.60;;;4.90;99.90;;;;;;4233278;28;20050;-80
2023/12/23 04:37:31;;;;;;;6.85;1.00;;;4.90;99.90;;;;;;4247192;28;20073;-81
2023/12/23 04:39:32;;;;;;;6.20;0.70;;;4.90;99.90;;;;;;4248041;28;20099;-80
2023/12/23 04:41:33;;;;;;;5.85;1.27;;;4.90;99.90;;;;;;4262853;27;20039;-80
2023/12/23 04:43:34;;;;;;;8.93;0.70;;;4.90;99.90;;;;;;4264343;27;20039;-80
2023/12/23 04:45:35;;;;;;;4.45;0.98;;;5.10;99.90;;;;;;4268452;27;20074;-80
2023/12/23 04:47:36;;;;;;;9.20;0.75;;;4.90;99.90;;;;;;4265499;27;20050;-80
2023/12/23 04:49:38;;;;;;;2.60;0.80;;;5.30;99.90;;;;;;4264093;27;20108;-80
2023/12/23 04:51:44;;;;;;;4.10;1.17;;;4.90;99.90;;;;;;4252736;27;20039;-81
2023/12/23 04:53:45;;;;;;;6.72;0.50;;;4.80;99.90;;;;;;4232561;28;20090;-81
2023/12/23 04:55:46;;;;;;;5.22;0.45;;;5.20;99.90;;;;;;4250856;27;20514;-80
2023/12/23 04:57:48;;;;;;;6.18;0.52;;;5.00;99.90;;;;;;4250462;27;20047;-81
2023/12/23 04:59:49;;;;;;;4.40;0.82;;;5.30;99.90;;;;;;4250007;27;20585;-80
2023/12/23 05:01:50;;;;;;;3.22;0.43;;;5.40;99.90;;;;;;4250185;27;20050;-80
2023/12/23 05:03:51;;;;;;;3.88;0.60;;;5.50;99.90;;;;;;4250228;27;20043;-81
2023/12/23 05:05:51;;;;;;;3.13;0.60;;;4.90;99.90;;;;;;4250022;27;20116;-81
2023/12/23 05:07:53;;;;;;;4.32;1.20;;;5.30;99.90;;;;;;4249404;27;20076;-81
2023/12/23 05:09:55;;;;;;;4.28;0.73;;;4.90;99.90;;;;;;4249417;27;20507;-81
2023/12/23 05:11:55;;;;;;;3.60;0.75;;;5.60;99.90;;;;;;4250005;27;20043;-81
2023/12/23 05:13:56;;;;;;;3.33;0.45;;;4.90;99.90;;;;;;4249310;27;20942;-80
2023/12/23 05:15:57;;;;;;;4.75;0.55;;;5.30;99.90;;;;;;4249605;28;20094;-81
2023/12/23 05:17:57;;;;;;;1.75;0.30;;;4.90;99.90;;;;;;4249065;28;20054;-81
2023/12/23 05:19:58;;;;;;;2.75;0.20;;;4.80;99.90;;;;;;4249195;28;20031;-81
2023/12/23 05:21:59;;;;;;;1.63;0.68;;;4.80;99.90;;;;;;4249364;28;20043;-80
2023/12/23 05:24:00;;;;;;;0.68;0.25;;;4.90;99.90;;;;;;4249521;28;20039;-80
2023/12/23 05:26:00;;;;;;;2.47;0.28;;;4.80;99.90;;;;;;4249171;28;20130;-82
2023/12/23 05:28:01;;;;;;;0.35;0.20;;;4.90;99.90;;;;;;4248670;27;20514;-80
2023/12/23 05:30:02;;;;;;;2.67;0.68;;;5.40;99.90;;;;;;4249219;28;20039;-80
2023/12/23 05:32:03;;;;;;;1.33;0.30;;;4.80;99.90;;;;;;4239129;28;20044;-80
2023/12/23 05:34:04;;;;;;;1.02;0.20;;;4.80;99.90;;;;;;4232292;28;20079;-80
2023/12/23 05:36:05;;;;;;;2.45;0.47;;;4.80;99.90;;;;;;4213931;28;20127;-80
2023/12/23 05:38:06;;;;;;;7.25;0.98;;;4.80;99.90;;;;;;4247563;28;20054;-80
2023/12/23 05:40:07;;;;;;;2.05;0.20;;;5.30;99.90;;;;;;4248803;28;20047;-80
2023/12/23 05:42:08;;;;;;;2.88;0.38;;;4.80;99.90;;;;;;4249710;28;20054;-80
2023/12/23 05:44:09;;;;;;;1.02;0.15;;;4.80;99.90;;;;;;4248827;28;20074;-80
2023/12/23 05:46:09;;;;;;;0.55;0.10;;;4.80;99.90;;;;;;4230608;28;20044;-80
2023/12/23 05:48:10;;;;;;;1.75;0.20;;;4.80;99.90;;;;;;4243607;28;20395;-80
2023/12/23 05:50:11;;;;;;;1.38;0.17;;;4.80;99.90;;;;;;4246832;28;20116;-80
2023/12/23 05:52:12;;;;;;;3.58;0.65;;;4.80;99.90;;;;;;4248753;28;20031;-82
2023/12/23 05:54:12;;;;;;;2.33;0.77;;;4.80;99.90;;;;;;4248906;28;20107;-80
2023/12/23 05:56:13;;;;;;;2.38;0.10;;;4.80;99.90;;;;;;4248929;28;20054;-80
2023/12/23 05:58:13;;;;;;;1.65;0.20;;;4.80;99.90;;;;;;4249146;28;20040;-80
2023/12/23 06:00:15;;;;;;;1.92;0.55;;;4.80;99.90;;;;;;4246875;28;20043;-80
2023/12/23 06:02:15;;;;;;;1.70;0.93;;;4.80;99.90;;;;;;4231939;28;20491;-80
2023/12/23 06:04:18;;;;;;;3.45;0.30;;;4.80;99.90;;;;;;4232032;28;20056;-80
2023/12/23 06:06:19;;;;;;;2.58;0.35;;;4.90;99.90;;;;;;4234254;28;20515;-80
2023/12/23 06:08:19;;;;;;;3.47;0.40;;;4.80;99.90;;;;;;4249333;28;20039;-80
2023/12/23 06:10:20;;;;;;;2.30;0.73;;;5.10;99.90;;;;;;4249285;28;20479;-80
2023/12/23 06:12:21;;;;;;;2.03;0.43;;;5.00;99.90;;;;;;4249088;28;20043;-80
2023/12/23 06:14:22;;;;;;;1.35;0.17;;;4.80;99.90;;;;;;4249171;28;20047;-81
2023/12/23 06:16:22;;;;;;;1.45;0.30;;;4.80;99.90;;;;;;4248914;28;20067;-80
2023/12/23 06:18:25;;;;;;;2.90;0.43;;;4.80;99.90;;;;;;4249256;27;20047;-80
2023/12/23 06:20:27;;;;;;;1.35;0.55;;;4.80;99.90;;;;;;4251439;27;20132;-81
2023/12/23 06:22:28;;;;;;;5.40;0.50;;;5.10;99.90;;;;;;4251779;27;20483;-81
2023/12/23 06:24:28;;;;;;;1.00;0.30;;;5.30;99.90;;;;;;4233442;28;20526;-80
2023/12/23 06:26:29;;;;;;;5.78;0.75;;;4.80;99.90;;;;;;4232229;28;20036;-80
2023/12/23 06:28:30;;;;;;;2.50;0.30;;;4.90;99.90;;;;;;4232435;28;20042;-80
2023/12/23 06:30:30;;;;;;;6.15;0.40;;;4.80;99.90;;;;;;4251304;27;20050;-80
2023/12/23 06:32:31;;;;;;;2.22;0.17;;;4.80;99.90;;;;;;4245525;27;20043;-81
2023/12/23 06:34:32;;;;;;;1.00;0.17;;;5.90;99.90;;;;;;4235929;27;20046;-80
2023/12/23 06:36:32;;;;;;;1.60;0.40;;;4.80;99.90;;;;;;4251260;27;20054;-81
2023/12/23 06:38:33;;;;;;;5.78;0.75;;;4.80;99.90;;;;;;4251170;27;20098;-80
2023/12/23 06:40:35;;;;;;;2.65;0.50;;;5.10;99.90;;;;;;4251111;27;20100;-80
2023/12/23 06:42:36;;;;;;;3.83;0.63;;;4.80;99.90;;;;;;4251026;27;20449;-80
2023/12/23 06:44:37;;;;;;;0.88;0.30;;;4.80;99.90;;;;;;4250821;27;20091;-80
2023/12/23 06:46:38;;;;;;;4.85;1.40;;;4.80;99.90;;;;;;4250641;27;20505;-80
2023/12/23 06:48:38;;;;;;;1.17;0.20;;;4.80;99.90;;;;;;4242802;27;20393;-80
2023/12/23 06:50:39;;;;;;;1.50;0.43;;;4.80;99.90;;;;;;4233736;28;20046;-80
2023/12/23 06:52:41;;;;;;;3.63;0.70;;;4.80;99.90;;;;;;4233874;28;20036;-80
2023/12/23 06:54:43;;;;;;;1.75;0.28;;;6.00;99.90;;;;;;4235179;28;20039;-80
2023/12/23 06:56:44;;;;;;;2.15;0.30;;;4.80;99.90;;;;;;4254309;28;20073;-80
2023/12/23 06:58:45;;;;;;;3.42;0.40;;;4.80;99.90;;;;;;4226055;28;20059;-80
2023/12/23 07:00:46;;;;;;;1.45;0.30;;;5.50;99.90;;;;;;4239255;28;20064;-81
2023/12/23 07:02:49;;;;;;;4.80;1.05;;;4.80;99.90;;;;;;4267068;27;20027;-81
2023/12/23 07:04:50;;;;;;;3.88;0.40;;;4.80;99.90;;;;;;4264204;27;20112;-81
2023/12/23 07:06:50;;;;;;;0.45;0.20;;;4.80;99.90;;;;;;4260324;27;20031;-81
2023/12/23 07:08:52;;;;;;;1.40;0.30;;;4.80;99.90;;;;;;4253956;27;20040;-79
2023/12/23 07:10:53;;;;;;;5.38;1.05;;;5.50;99.90;;;;;;4240782;27;20032;-79
2023/12/23 07:12:55;;;;;;;2.08;0.40;;;4.70;99.90;;;;;;4235619;27;20100;-81
2023/12/23 07:15:03;;;;;;;0.70;0.20;;;5.00;99.90;;;;;;4237862;27;20066;-81
2023/12/23 07:17:04;;;;;;;0.93;0.15;;;4.70;99.90;;;;;;4249409;27;20042;-81
2023/12/23 07:19:05;;;;;;;0.65;0.30;;;5.50;99.90;;;;;;4252920;27;20079;-81
2023/12/23 07:21:05;;;;;;;2.08;0.45;;;5.40;99.90;;;;;;4252722;27;20035;-81
2023/12/23 07:23:06;;;;;;;0.20;0.15;;;4.70;99.90;;;;;;4252922;27;20042;-81
2023/12/23 07:25:07;;;;;;;2.30;0.40;;;4.70;99.90;;;;;;4234577;28;20054;-81
2023/12/23 07:27:08;;;;;;;2.10;0.22;;;4.80;99.90;;;;;;4253824;27;20050;-81
2023/12/23 07:29:09;;;;;;;2.80;0.60;;;5.10;99.90;;;;;;4253490;27;20075;-80
2023/12/23 07:31:10;;;;;;;1.13;0.20;;;5.20;99.90;;;;;;4251934;27;20039;-80
2023/12/23 07:33:12;;;;;;;4.32;0.65;;;4.80;99.90;;;;;;4252615;27;20047;-80
2023/12/23 07:35:12;;;;;;;1.38;0.20;;;4.70;99.90;;;;;;4253302;27;20039;-80
2023/12/23 07:37:13;;;;;;;1.40;0.50;;;4.80;99.90;;;;;;4270816;27;20015;-80
2023/12/23 07:39:14;;;;;;;0.63;0.30;;;5.50;99.90;;;;;;4258820;27;20095;-79
2023/12/23 07:41:16;;;;;;;1.55;0.20;;;6.10;99.90;;;;;;4261608;27;20035;-80
2023/12/23 07:43:16;;;;;;;0.45;0.30;;;5.40;99.90;;;;;;4264942;27;20047;-81
2023/12/23 07:45:18;;;;;;;4.00;0.40;;;5.00;99.90;;;;;;4270382;27;20050;-82
2023/12/23 07:47:19;;;;;;;0.38;0.20;;;5.20;99.90;;;;;;4270449;27;20060;-82
2023/12/23 07:49:30;;;;;;;0.60;0.40;;;4.80;99.90;;;;;;4268378;27;20103;-80
2023/12/23 07:51:33;;;;;;;0.38;0.28;;;4.80;99.90;;;;;;4266674;27;20039;-80
2023/12/23 07:53:35;;;;;;;1.65;0.28;;;4.80;99.90;;;;;;4268693;27;20023;-80
2023/12/23 07:55:41;;;;;;;1.27;0.20;;;4.80;99.90;;;;;;4268092;27;20050;-80
2023/12/23 07:57:43;;;;;;;1.88;0.30;;;4.80;99.90;;;;;;4261171;27;20047;-80
2023/12/23 07:59:44;;;;;;;0.68;0.50;;;5.10;99.90;;;;;;4253268;27;20075;-80
2023/12/23 08:01:46;;;;;;;2.72;0.25;;;4.80;99.90;;;;;;4251606;27;20077;-81
2023/12/23 08:03:48;;;;;;;2.25;0.20;;;5.10;99.90;;;;;;4251162;27;20140;-81
2023/12/23 08:05:49;;;;;;;0.40;0.30;;;4.80;99.90;;;;;;4249217;27;20053;-81
2023/12/23 08:07:49;;;;;;;0.98;0.22;;;4.80;99.90;;;;;;4251337;27;20063;-80
2023/12/23 08:09:51;;;;;;;1.30;0.17;;;4.80;99.90;;;;;;4250890;27;20118;-81
2023/12/23 08:11:52;;;;;;;2.33;0.22;;;4.80;99.90;;;;;;4251308;27;20094;-81
2023/12/23 08:13:52;;;;;;;2.20;0.30;;;4.80;99.90;;;;;;4251052;27;20100;-81
2023/12/23 08:15:53;;;;;;;1.00;0.20;;;4.80;99.90;;;;;;4251695;27;20429;-81
2023/12/23 08:17:54;;;;;;;0.57;0.20;;;4.90;99.90;;;;;;4251451;27;20039;-80
2023/12/23 08:19:55;;;;;;;1.27;0.40;;;4.80;99.90;;;;;;4251241;27;20122;-81
2023/12/23 08:21:56;;;;;;;0.88;0.40;;;4.80;99.90;;;;;;4249739;27;20419;-81
2023/12/23 08:24:01;;;;;;;1.17;0.50;;;4.80;99.90;;;;;;4249704;27;20039;-82
2023/12/23 08:26:02;;;;;;;1.88;0.50;;;6.00;99.90;;;;;;4245359;27;20475;-81
2023/12/23 08:28:03;;;;;;;1.75;0.45;;;4.90;99.90;;;;;;4248210;27;20035;-80
2023/12/23 08:30:07;;;;;;;1.75;0.60;;;4.80;99.90;;;;;;4250134;27;20039;-81
2023/12/23 08:32:08;;;;;;;0.75;0.52;;;4.90;99.90;;;;;;4242017;27;20446;-80
2023/12/23 08:34:09;;;;;;;1.08;0.50;;;5.20;99.90;;;;;;4232951;28;20503;-81
2023/12/23 08:36:10;;;;;;;1.15;0.35;;;4.90;99.90;;;;;;4232817;28;20075;-81
2023/12/23 08:38:11;;;;;;;1.90;0.77;;;5.00;99.90;;;;;;4232718;28;20042;-81
2023/12/23 08:40:12;;;;;;;0.95;0.50;;;4.90;99.90;;;;;;4232950;28;20032;-80
2023/12/23 08:42:13;;;;;;;1.33;0.40;;;4.90;99.90;;;;;;4232163;28;20161;-81
2023/12/23 08:44:14;;;;;;;5.65;0.40;;;4.90;99.90;;;;;;4232846;28;20472;-81
2023/12/23 08:46:15;;;;;;;1.50;0.70;;;5.50;99.90;;;;;;4233063;28;20094;-81
2023/12/23 08:48:16;;;;;;;1.10;0.70;;;5.40;99.90;;;;;;4232787;27;20051;-81
2023/12/23 08:50:17;;;;;;;0.60;0.40;;;5.70;99.90;;;;;;4250106;27;20903;-80
2023/12/23 08:52:18;;;;;;;1.25;0.30;;;4.90;99.90;;;;;;4225544;28;20047;-80
2023/12/23 08:54:19;;;;;;;1.50;0.47;;;4.90;99.90;;;;;;4250369;27;20519;-79
2023/12/23 08:56:20;;;;;;;0.45;0.10;;;4.90;99.90;;;;;;4249157;27;20043;-79
2023/12/23 08:58:20;;;;;;;0.35;0.28;;;4.90;99.90;;;;;;4249797;27;20122;-80
2023/12/23 09:00:22;;;;;;;0.40;0.40;;;4.90;99.90;;;;;;4248940;27;20071;-80
2023/12/23 09:02:23;;;;;;;3.38;0.38;;;4.90;99.90;;;;;;4249150;27;20077;-79
2023/12/23 09:04:23;;;;;;;0.63;0.38;;;4.90;99.90;;;;;;4249615;27;20071;-80
2023/12/23 09:06:24;;;;;;;2.00;0.52;;;4.90;99.90;;;;;;4214081;28;20044;-80
2023/12/23 09:08:26;;;;;;;4.20;0.80;;;5.70;99.90;;;;;;4248066;27;20090;-80
2023/12/23 09:10:27;;;;;;;0.98;0.32;;;5.10;99.90;;;;;;4230435;28;20043;-80
2023/12/23 09:12:28;;;;;;;1.08;0.40;;;5.30;99.90;;;;;;4230800;28;20075;-80
2023/12/23 09:14:29;;;;;;;2.13;1.00;;;5.90;99.90;;;;;;4249450;27;20050;-80
2023/12/23 09:16:30;;;;;;;5.28;0.80;;;5.00;99.90;;;;;;4249355;28;20039;-80
2023/12/23 09:18:31;;;;;;;1.33;0.68;;;5.10;99.90;;;;;;4248653;28;20118;-80
2023/12/23 09:20:32;;;;;;;2.38;0.80;;;5.10;99.90;;;;;;4248816;28;20043;-80
2023/12/23 09:22:32;;;;;;;3.42;0.70;;;5.00;99.90;;;;;;4247274;28;20510;-80
2023/12/23 09:24:35;;;;;;;0.73;0.60;;;5.00;99.90;;;;;;4247020;28;20031;-81
2023/12/23 09:26:36;;;;;;;1.63;0.65;;;5.00;99.90;;;;;;4250432;28;20047;-81
2023/12/23 09:28:38;;;;;;;1.13;0.68;;;5.70;99.90;;;;;;4250279;27;20039;-81
2023/12/23 09:30:40;;;;;;;0.98;0.60;;;5.00;99.90;;;;;;4250922;28;20154;-81
2023/12/23 09:32:40;;;;;;;1.27;0.77;;;5.00;99.90;;;;;;4250700;28;20043;-81
2023/12/23 09:34:43;;;;;;;0.98;0.55;;;5.50;99.90;;;;;;4250315;28;20050;-81
2023/12/23 09:36:43;;;;;;;0.95;0.50;;;5.00;99.90;;;;;;4250278;28;20092;-81
2023/12/23 09:38:45;;;;;;;2.35;0.47;;;5.00;99.90;;;;;;4250231;28;20487;-81
2023/12/23 09:40:46;;;;;;;1.35;0.68;;;5.30;99.90;;;;;;4249764;28;20526;-81
2023/12/23 09:42:47;;;;;;;3.78;0.55;;;5.20;99.90;;;;;;4232410;28;20044;-81
2023/12/23 09:44:48;;;;;;;1.95;0.40;;;5.10;99.90;;;;;;4250436;28;20047;-81
2023/12/23 09:46:50;;;;;;;0.32;0.32;;;5.00;99.90;;;;;;4250198;28;20458;-81
2023/12/23 09:48:52;;;;;;;1.60;0.52;;;5.10;99.90;;;;;;4231384;28;20051;-81
2023/12/23 09:50:52;;;;;;;1.35;0.80;;;5.40;99.90;;;;;;4250642;28;20051;-81
2023/12/23 09:52:57;;;;;;;1.60;0.60;;;5.10;99.90;;;;;;4232265;28;20043;-81
2023/12/23 09:54:58;;;;;;;1.65;0.60;;;6.20;99.90;;;;;;4253912;27;20082;-81
2023/12/23 09:57:00;;;;;;;2.35;0.80;;;6.40;99.90;;;;;;4253653;27;20047;-81
2023/12/23 09:59:03;;;;;;;0.90;0.45;;;5.20;99.90;;;;;;4235654;28;20054;-81
2023/12/23 10:01:03;;;;;;;1.90;0.60;;;5.20;99.90;;;;;;4253527;27;20069;-81
2023/12/23 10:03:04;;;;;;;0.95;0.32;;;6.30;99.90;;;;;;4253193;27;20106;-81
2023/12/23 10:05:06;;;;;;;0.82;0.43;;;5.80;99.90;;;;;;4253627;27;20039;-81
2023/12/23 10:07:07;;;;;;;1.42;0.40;;;5.20;99.90;;;;;;4253369;27;20076;-80
2023/12/23 10:09:10;;;;;;;0.57;0.47;;;5.20;99.90;;;;;;4253304;27;20471;-81
2023/12/23 10:11:10;;;;;;;0.80;0.43;;;5.20;99.90;;;;;;4253600;27;20046;-81
2023/12/23 10:13:12;;;;;;;2.25;0.90;;;5.20;99.90;;;;;;4253542;27;20062;-81
2023/12/23 10:15:13;;;;;;;3.00;0.80;;;5.20;99.90;;;;;;4253540;27;20046;-81
2023/12/23 10:17:14;;;;;;;2.00;0.60;;;5.20;99.90;;;;;;4252477;27;20046;-81
2023/12/23 10:19:15;;;;;;;1.10;0.50;;;4.60;99.90;;;;;;4253688;27;20054;-81
2023/12/23 10:21:15;;;;;;;0.77;0.50;;;5.20;99.90;;;;;;4253187;27;20047;-81
2023/12/23 10:23:17;;;;;;;1.40;0.70;;;5.20;99.90;;;;;;4234927;28;20083;-81
2023/12/23 10:25:18;;;;;;;1.63;1.00;;;6.50;99.90;;;;;;4251591;27;20043;-81
2023/12/23 10:27:19;;;;;;;1.77;0.80;;;6.20;99.90;;;;;;4252065;27;20542;-81
2023/12/23 10:29:23;;;;;;;2.38;0.60;;;5.20;99.90;;;;;;4251919;27;20039;-81
2023/12/23 10:31:29;;;;;;;1.30;0.60;;;5.60;99.90;;;;;;4251730;27;20043;-81
2023/12/23 10:33:33;;;;;;;1.70;0.80;;;5.40;99.90;;;;;;4246441;27;20039;-81
2023/12/23 10:35:50;;;;;;;1.27;0.93;;;5.30;99.90;;;;;;4252745;27;20494;-81
2023/12/23 10:37:58;;;;;;;1.08;0.60;;;5.50;99.90;;;;;;4253352;27;20088;-81